createdAt,value
2019-06-07T00:02:47.313Z,12.63
2019-06-07T00:07:54.192Z,13.05
2019-06-07T00:13:00.689Z,13.98
2019-06-07T00:18:11.173Z,14.33
2019-06-07T00:23:22.115Z,13.90
2019-06-07T00:28:24.090Z,13.88
2019-06-07T00:33:30.856Z,13.65
2019-06-07T00:38:37.516Z,14.45
2019-06-07T00:43:44.179Z,13.98
2019-06-07T00:48:50.753Z,14.23
2019-06-07T00:53:57.404Z,13.58
2019-06-07T00:59:11.348Z,12.93
2019-06-07T01:04:13.121Z,13.70
2019-06-07T01:09:23.959Z,12.45
2019-06-07T01:14:29.058Z,12.82
2019-06-07T01:19:35.731Z,12.82
2019-06-07T01:24:42.404Z,12.33
2019-06-07T01:29:49.064Z,12.05
2019-06-07T01:34:55.684Z,12.47
2019-06-07T01:40:02.260Z,11.68
2019-06-07T01:45:10.436Z,11.65
2019-06-07T01:50:22.596Z,12.00
2019-06-07T01:55:32.062Z,12.63
2019-06-07T02:00:36.272Z,13.25
2019-06-07T02:05:42.910Z,12.95
2019-06-07T02:10:49.511Z,12.60
2019-06-07T02:15:56.046Z,12.20
2019-06-07T02:21:02.647Z,13.00
2019-06-07T02:26:09.252Z,13.78
2019-06-07T02:31:15.789Z,14.28
2019-06-07T02:36:25.489Z,14.18
2019-06-07T02:41:38.679Z,14.45
2019-06-07T02:46:46.599Z,15.15
2019-06-07T02:51:47.358Z,14.00
2019-06-07T02:56:58.660Z,13.72
2019-06-07T03:02:02.575Z,13.28
2019-06-07T03:07:12.246Z,14.45
2019-06-07T03:12:22.407Z,14.20
2019-06-07T03:17:40.884Z,13.48
2019-06-07T03:22:49.145Z,12.90
2019-06-07T03:27:55.866Z,13.65
2019-06-07T03:33:02.380Z,13.55
2019-06-07T03:38:09.030Z,14.73
2019-06-07T03:43:15.593Z,13.30
2019-06-07T03:48:22.176Z,13.55
2019-06-07T03:53:30.802Z,13.38
2019-06-07T03:58:49.071Z,13.83
2019-06-07T04:03:51.883Z,15.08
2019-06-07T04:08:54.881Z,14.10
2019-06-07T04:14:02.514Z,15.48
2019-06-07T04:19:09.173Z,15.30
2019-06-07T04:24:16.635Z,16.23
2019-06-07T04:29:33.087Z,15.93
2019-06-07T04:34:37.513Z,15.80
2019-06-07T04:39:44.927Z,15.93
2019-06-07T04:44:53.676Z,15.53
2019-06-07T04:50:03.086Z,16.82
2019-06-07T04:55:09.913Z,16.05
2019-06-07T05:00:48.682Z,15.63
2019-06-07T05:05:29.338Z,16.75
2019-06-07T05:10:38.182Z,17.23
2019-06-07T05:15:44.315Z,15.70
2019-06-07T05:20:51.036Z,17.45
2019-06-07T05:25:57.851Z,15.35
2019-06-07T05:31:06.191Z,16.77
2019-06-07T05:36:12.859Z,16.17
2019-06-07T05:41:19.516Z,16.73
2019-06-07T05:46:26.100Z,15.15
2019-06-07T05:51:32.751Z,15.48
2019-06-07T05:56:40.735Z,16.50
2019-06-07T06:02:00.149Z,16.23
2019-06-07T06:06:56.964Z,16.12
2019-06-07T06:12:04.578Z,15.55
2019-06-07T06:17:11.165Z,16.90
2019-06-07T06:22:17.798Z,16.50
2019-06-07T06:28:02.814Z,17.62
2019-06-07T06:32:42.928Z,17.40
2019-06-07T06:37:42.682Z,16.70
2019-06-07T06:42:50.596Z,17.30
2019-06-07T06:47:57.329Z,17.80
2019-06-07T06:53:03.926Z,16.62
2019-06-07T06:58:10.578Z,17.37
2019-06-07T07:08:26.457Z,17.77
2019-06-07T07:13:33.091Z,18.32
2019-06-07T07:18:39.618Z,19.67
2019-06-07T07:24:08.222Z,17.57
2019-06-07T07:28:57.314Z,17.10
2019-06-07T07:39:11.165Z,16.52
2019-06-07T07:44:17.852Z,16.87
2019-06-07T07:49:24.525Z,17.67
2019-06-07T07:54:31.247Z,16.32
2019-06-07T07:59:44.062Z,18.27
2019-06-07T08:05:16.684Z,18.05
2019-06-07T08:09:59.585Z,20.65
2019-06-07T08:15:03.782Z,20.05
2019-06-07T08:20:12.412Z,18.27
2019-06-07T08:25:19.494Z,18.07
2019-06-07T08:30:49.861Z,18.35
2019-06-07T08:36:05.814Z,19.23
2019-06-07T08:40:44.965Z,17.62
2019-06-07T08:45:58.400Z,16.82
2019-06-07T08:51:06.617Z,17.00
2019-06-07T08:56:10.779Z,15.93
2019-06-07T09:01:16.606Z,15.60
2019-06-07T09:11:31.546Z,12.18
2019-06-07T09:16:38.215Z,12.03
2019-06-07T09:21:44.913Z,11.48
2019-06-07T09:26:51.575Z,11.63
2019-06-07T09:32:03.836Z,10.78
2019-06-07T09:37:54.455Z,11.30
2019-06-07T09:42:14.989Z,12.68
2019-06-07T09:47:31.886Z,12.82
2019-06-07T09:52:29.961Z,12.58
2019-06-07T09:57:36.627Z,11.97
2019-06-07T10:02:43.232Z,12.58
2019-06-07T10:08:02.461Z,12.70
2019-06-07T10:12:59.547Z,11.35
2019-06-07T10:18:07.083Z,12.18
2019-06-07T10:23:13.817Z,10.28
2019-06-07T10:28:20.622Z,11.75
2019-06-07T10:33:27.280Z,11.43
2019-06-07T10:38:33.823Z,11.15
2019-06-07T10:43:40.322Z,11.28
2019-06-07T10:48:46.890Z,12.03
2019-06-07T10:53:53.536Z,10.82
2019-06-07T10:59:00.092Z,10.53
2019-06-07T11:04:07.775Z,9.00
2019-06-07T11:09:14.584Z,7.53
2019-06-07T11:14:21.086Z,8.28
2019-06-07T11:19:27.674Z,7.33
2019-06-07T11:24:34.163Z,8.90
2019-06-07T11:29:41.684Z,6.95
2019-06-07T11:34:48.409Z,6.42
2019-06-07T11:39:55.180Z,6.03
2019-06-07T11:45:01.922Z,6.65
2019-06-07T11:50:31.978Z,7.33
2019-06-07T11:55:41.508Z,6.35
2019-06-07T12:00:48.184Z,6.47
2019-06-07T12:05:55.199Z,6.37
2019-06-07T12:11:02.004Z,7.35
2019-06-07T12:16:09.123Z,6.78
2019-06-07T12:21:15.941Z,6.42
2019-06-07T12:26:22.678Z,6.42
2019-06-07T12:31:29.362Z,6.00
2019-06-07T12:36:36.099Z,6.70
2019-06-07T12:41:42.746Z,6.17
2019-06-07T12:46:49.390Z,6.70
2019-06-07T12:51:56.127Z,6.33
2019-06-07T12:57:02.741Z,5.85
2019-06-07T13:02:09.437Z,5.67
2019-06-07T13:07:17.880Z,4.15
2019-06-07T13:12:24.862Z,3.60
2019-06-07T13:17:31.539Z,4.92
2019-06-07T13:22:38.367Z,4.37
2019-06-07T13:27:45.103Z,4.62
2019-06-07T13:32:51.697Z,4.03
2019-06-07T13:37:59.668Z,3.17
2019-06-07T13:43:07.712Z,3.15
2019-06-07T13:48:14.318Z,3.35
2019-06-07T13:53:22.725Z,5.12
2019-06-07T13:58:29.453Z,3.40
2019-06-07T14:03:36.080Z,3.47
2019-06-07T14:08:43.733Z,15.75
2019-06-07T14:13:50.425Z,2.92
2019-06-07T14:18:57.079Z,3.33
2019-06-07T14:24:03.743Z,3.17
2019-06-07T14:29:10.488Z,3.52
2019-06-07T14:34:17.104Z,3.33
2019-06-07T14:39:24.933Z,4.45
2019-06-07T14:44:31.766Z,3.30
2019-06-07T14:49:38.499Z,3.62
2019-06-07T14:54:45.114Z,3.33
2019-06-07T14:59:51.909Z,3.65
2019-06-07T15:04:59.037Z,4.05
2019-06-07T15:10:07.521Z,3.75
2019-06-07T15:15:14.465Z,3.95
2019-06-07T15:20:21.325Z,3.42
2019-06-07T15:25:29.164Z,4.40
2019-06-07T15:30:35.884Z,4.45
2019-06-07T15:35:42.428Z,4.78
2019-06-07T15:40:49.100Z,4.87
2019-06-07T15:45:55.597Z,4.90
2019-06-07T15:51:02.067Z,5.17
2019-06-07T15:56:09.002Z,4.70
2019-06-07T16:01:15.634Z,4.60
2019-06-07T16:06:22.281Z,5.42
2019-06-07T16:11:29.092Z,4.45
2019-06-07T16:16:37.039Z,4.37
2019-06-07T16:21:43.942Z,4.17
2019-06-07T16:26:50.583Z,4.45
2019-06-07T16:31:57.126Z,4.45
2019-06-07T16:37:03.682Z,4.22
2019-06-07T16:42:10.477Z,3.80
2019-06-07T16:47:17.176Z,3.80
2019-06-07T16:52:23.885Z,3.80
2019-06-07T16:57:30.495Z,4.47
2019-06-07T17:02:38.060Z,4.62
2019-06-07T17:07:46.730Z,4.70
2019-06-07T17:12:53.261Z,4.53
2019-06-07T17:17:59.963Z,5.45
2019-06-07T17:23:06.645Z,5.10
2019-06-07T17:28:13.358Z,5.60
2019-06-07T17:33:20.024Z,5.62
2019-06-07T17:38:26.775Z,5.78
2019-06-07T17:43:48.469Z,5.90
2019-06-07T17:48:41.988Z,6.00
2019-06-07T17:53:49.926Z,5.85
2019-06-07T17:58:56.768Z,5.87
2019-06-07T18:04:04.110Z,5.78
2019-06-07T18:09:14.070Z,6.42
2019-06-07T18:14:19.955Z,6.03
2019-06-07T18:19:26.676Z,6.40
2019-06-07T18:24:33.490Z,5.97
2019-06-07T18:29:40.124Z,6.90
2019-06-07T18:34:46.989Z,6.87
2019-06-07T18:39:55.216Z,6.95
2019-06-07T18:45:01.912Z,7.12
2019-06-07T18:50:09.946Z,6.85
2019-06-07T18:55:17.492Z,7.22
2019-06-07T19:00:25.282Z,7.50
2019-06-07T19:05:31.913Z,7.58
2019-06-07T19:10:38.664Z,7.58
2019-06-07T19:15:45.392Z,7.67
2019-06-07T19:20:52.498Z,8.28
2019-06-07T19:26:00.700Z,7.12
2019-06-07T19:31:07.395Z,7.70
2019-06-07T19:36:14.109Z,7.75
2019-06-07T19:41:20.846Z,8.38
2019-06-07T19:46:27.644Z,7.97
2019-06-07T19:51:36.084Z,7.60
2019-06-07T19:56:42.708Z,7.72
2019-06-07T20:01:49.776Z,7.47
2019-06-07T20:06:56.522Z,8.33
2019-06-07T20:12:03.234Z,8.58
2019-06-07T20:17:09.917Z,9.10
2019-06-07T20:22:16.454Z,9.83
2019-06-07T20:27:23.145Z,8.03
2019-06-07T20:32:29.720Z,7.83
2019-06-07T20:37:36.362Z,7.90
2019-06-07T20:42:43.013Z,8.65
2019-06-07T20:47:49.665Z,8.70
2019-06-07T20:52:56.255Z,8.10
2019-06-07T20:58:03.714Z,8.68
2019-06-07T21:03:11.194Z,8.33
2019-06-07T21:08:17.957Z,8.33
2019-06-07T21:13:24.543Z,7.35
2019-06-07T21:18:31.205Z,7.25
2019-06-07T21:23:37.830Z,7.12
2019-06-07T21:28:44.536Z,6.62
2019-06-07T21:33:51.167Z,6.62
2019-06-07T21:38:57.841Z,6.72
2019-06-07T21:44:06.113Z,6.70
2019-06-07T21:49:12.949Z,6.78
2019-06-07T21:54:19.621Z,6.17
2019-06-07T21:59:26.226Z,5.95
2019-06-07T22:04:32.830Z,6.10
2019-06-07T22:09:39.579Z,6.05
2019-06-07T22:14:46.062Z,6.03
2019-06-07T22:19:52.964Z,6.08
2019-06-07T22:24:59.532Z,6.35
2019-06-07T22:30:06.732Z,6.92
2019-06-07T22:35:13.567Z,7.17
2019-06-07T22:40:20.189Z,7.22
2019-06-07T22:45:26.845Z,7.95
2019-06-07T22:50:33.434Z,8.75
2019-06-07T22:55:40.004Z,9.48
2019-06-07T23:00:46.468Z,9.48
2019-06-07T23:05:53.115Z,7.75
2019-06-07T23:10:59.684Z,6.25
2019-06-07T23:16:06.602Z,3.27
2019-06-07T23:21:13.781Z,1.57
2019-06-07T23:26:20.702Z,1.62
2019-06-07T23:31:27.207Z,1.10
2019-06-07T23:36:33.687Z,0.95
2019-06-07T23:41:40.521Z,0.90
2019-06-07T23:46:47.151Z,0.70
2019-06-07T23:51:53.676Z,0.88
2019-06-07T23:57:00.148Z,0.85
